Terminal Aerodrome Forecast
Issued by NWS Albany, NY

Home | Current Version | Previous Version | Text Only | Print | Product List | Glossary On
Versions: 1 2 3 4 5 6 7 8 9 10 11 12 13 14 15 16 17 18
591
FTUS41 KALY 200520
TAFGFL
TAF
KGFL 200520Z 2006/2106 26004KT P6SM SCT250
     FM200800 23003KT P6SM FEW250 WS020/28030KT
     FM201300 33008KT P6SM SKC
     FM210200 VRB03KT P6SM SKC=

USA.gov is the U.S. government's official web portal to all federal, state and local government web resources and services.